Time;durP1;ratioP1;P1;durP2;ratioP2;P2;SDS_P1;SDS_P2;PMS_P1;PMS_P2;Temp;Humidity;BMP_temperature;BMP_pressure;BME280_temperature;BME280_humidity;BME280_pressure;Samples;Min_cycle;Max_cycle;Signal;HPM_P1;HPM_P2
2022/05/06 00:02:09;;;;;;;3.40;2.27;;;;;;;10.51;63.42;101649.34;5048373;28;20205;-75
2022/05/06 00:04:37;;;;;;;2.73;2.40;;;;;;;10.49;63.53;101646.75;5048178;28;20627;-74
2022/05/06 00:07:04;;;;;;;3.90;2.30;;;;;;;10.48;63.71;101647.69;5048529;28;20229;-75
2022/05/06 00:09:30;;;;;;;3.20;2.53;;;;;;;10.49;64.12;101643.22;5048740;28;20296;-74
2022/05/06 00:11:57;;;;;;;5.47;2.50;;;;;;;10.50;63.82;101655.59;5049181;28;20212;-74
2022/05/06 00:14:23;;;;;;;3.43;2.30;;;;;;;10.50;64.32;101651.13;5064043;28;20208;-74
2022/05/06 00:16:50;;;;;;;5.23;2.33;;;;;;;10.49;63.79;101654.72;5064842;28;20232;-74
2022/05/06 00:19:16;;;;;;;3.00;2.60;;;;;;;10.47;63.96;101653.06;5067353;28;20581;-74
2022/05/06 00:21:44;;;;;;;3.47;2.70;;;;;;;10.43;63.91;101663.88;5068685;28;20205;-75
2022/05/06 00:24:11;;;;;;;3.13;2.60;;;;;;;10.39;64.16;101656.13;5049984;28;20214;-74
2022/05/06 00:26:37;;;;;;;4.23;2.80;;;;;;;10.36;64.44;101664.25;5065775;28;20204;-74
2022/05/06 00:29:04;;;;;;;4.00;2.80;;;;;;;10.32;64.22;101665.31;5061424;28;20213;-74
2022/05/06 00:31:30;;;;;;;4.93;2.97;;;;;;;10.29;64.56;101666.31;5048329;28;20216;-74
2022/05/06 00:33:57;;;;;;;3.97;2.87;;;;;;;10.25;64.62;101662.06;5055726;28;20241;-75
2022/05/06 00:36:23;;;;;;;3.10;2.13;;;;;;;10.23;64.80;101665.72;5059625;28;20209;-74
2022/05/06 00:38:51;;;;;;;3.77;2.70;;;;;;;10.16;64.52;101664.25;5047954;28;20236;-75
2022/05/06 00:41:18;;;;;;;3.17;2.63;;;;;;;10.03;63.56;101669.28;5051386;28;20694;-74
2022/05/06 00:43:46;;;;;;;3.30;2.50;;;;;;;9.87;63.86;101665.53;5068282;28;20231;-74
2022/05/06 00:46:14;;;;;;;3.17;2.70;;;;;;;9.72;64.66;101659.09;5065216;28;20201;-74
2022/05/06 00:48:43;;;;;;;3.00;2.43;;;;;;;9.62;64.56;101663.97;5065748;28;20252;-74
2022/05/06 00:51:09;;;;;;;3.77;2.53;;;;;;;9.54;64.86;101675.84;5044548;28;20236;-73
2022/05/06 00:53:37;;;;;;;2.80;2.60;;;;;;;9.51;66.03;101678.63;5062665;28;20671;-74
2022/05/06 00:56:08;;;;;;;3.20;2.60;;;;;;;9.51;66.38;101671.53;5032387;28;20214;-73
2022/05/06 00:58:35;;;;;;;3.23;2.40;;;;;;;9.48;66.07;101674.34;5047478;28;20703;-74
2022/05/06 01:01:03;;;;;;;4.03;2.97;;;;;;;9.50;66.68;101674.25;5056666;28;20223;-74
2022/05/06 01:03:30;;;;;;;4.17;3.03;;;;;;;9.49;66.90;101672.56;5067465;28;20220;-74
2022/05/06 01:05:57;;;;;;;5.13;2.80;;;;;;;9.47;66.36;101672.63;5067663;28;20196;-74
2022/05/06 01:08:24;;;;;;;3.10;2.70;;;;;;;9.47;66.13;101674.41;5052171;28;20228;-75
2022/05/06 01:10:50;;;;;;;4.57;2.80;;;;;;;9.46;67.04;101664.69;5053300;28;20631;-74
2022/05/06 01:13:19;;;;;;;7.60;2.70;;;;;;;9.45;66.99;101670.94;5066618;28;20193;-74
2022/05/06 01:15:45;;;;;;;2.93;2.67;;;;;;;9.44;67.21;101667.41;5051972;28;20262;-74
2022/05/06 01:18:12;;;;;;;4.83;2.70;;;;;;;9.41;67.37;101662.22;5058005;28;20224;-73
2022/05/06 01:20:44;;;;;;;2.83;2.63;;;;;;;9.37;67.23;101673.91;5056286;28;20197;-74
2022/05/06 01:23:12;;;;;;;3.60;2.80;;;;;;;9.36;67.61;101672.19;5047340;28;20209;-74
2022/05/06 01:25:39;;;;;;;4.87;3.07;;;;;;;9.33;66.70;101680.28;5049607;28;20217;-74
2022/05/06 01:28:07;;;;;;;3.27;2.50;;;;;;;9.27;67.48;101681.44;5066924;28;20229;-74
2022/05/06 01:30:36;;;;;;;3.23;2.53;;;;;;;9.23;67.50;101678.94;5058507;28;20220;-74
2022/05/06 01:33:05;;;;;;;5.27;2.57;;;;;;;9.17;67.33;101676.53;5064936;28;20702;-74
2022/05/06 01:35:33;;;;;;;3.20;2.90;;;;;;;9.11;66.83;101677.66;5066941;28;20212;-75
2022/05/06 01:38:03;;;;;;;2.90;2.70;;;;;;;9.05;67.50;101670.81;5064099;28;20220;-74
2022/05/06 01:40:37;;;;;;;4.07;3.00;;;;;;;8.99;67.55;101672.84;5047418;28;20201;-74
2022/05/06 01:43:05;;;;;;;3.97;2.93;;;;;;;8.94;67.66;101683.66;5046821;28;20198;-75
2022/05/06 01:45:36;;;;;;;2.93;2.63;;;;;;;8.89;67.46;101676.81;5046722;28;20244;-74
2022/05/06 01:48:04;;;;;;;4.03;2.73;;;;;;;8.83;67.76;101691.19;5047790;28;20229;-74
2022/05/06 01:50:33;;;;;;;3.63;2.60;;;;;;;8.78;68.22;101690.50;5061483;28;20201;-74
2022/05/06 01:53:00;;;;;;;4.30;2.97;;;;;;;8.75;67.65;101690.63;5049658;28;20243;-73
2022/05/06 01:55:26;;;;;;;3.20;2.90;;;;;;;8.72;68.59;101685.44;5047441;28;20212;-75
2022/05/06 01:57:55;;;;;;;4.63;2.70;;;;;;;8.69;67.77;101686.41;5046468;28;20645;-74
2022/05/06 02:00:22;;;;;;;6.37;2.63;;;;;;;8.66;68.24;101685.66;5047173;28;20205;-74
2022/05/06 02:02:48;;;;;;;3.73;2.90;;;;;;;8.65;68.42;101686.59;5046677;28;20213;-75
2022/05/06 02:05:17;;;;;;;5.13;3.40;;;;;;;8.63;69.51;101693.75;5048443;28;20224;-75
2022/05/06 02:07:43;;;;;;;4.47;2.67;;;;;;;8.60;69.63;101685.88;5051214;28;20233;-74
2022/05/06 02:10:10;;;;;;;3.77;3.20;;;;;;;8.58;70.16;101693.09;5054072;28;20323;-74
2022/05/06 02:12:36;;;;;;;3.57;3.27;;;;;;;8.58;70.17;101695.72;5050223;28;20239;-74
2022/05/06 02:15:05;;;;;;;4.23;2.90;;;;;;;8.55;70.30;101682.56;5050339;28;20202;-74
2022/05/06 02:17:32;;;;;;;3.63;2.70;;;;;;;8.53;69.73;101689.72;5050271;28;20221;-75
2022/05/06 02:19:58;;;;;;;3.03;2.73;;;;;;;8.50;70.56;101684.53;5050091;28;20201;-74
2022/05/06 02:22:27;;;;;;;3.47;3.10;;;;;;;8.48;70.23;101691.69;5050343;28;20221;-74
2022/05/06 02:24:55;;;;;;;4.07;3.10;;;;;;;8.44;70.94;101685.63;5061989;28;20239;-74
2022/05/06 02:27:21;;;;;;;4.63;3.10;;;;;;;8.44;71.04;101682.09;5069771;28;20225;-73
2022/05/06 02:35:14;;;;;;;3.40;2.77;;;;;;;8.38;70.08;101682.34;5049607;28;20212;-74
2022/05/06 02:37:40;;;;;;;3.93;2.83;;;;;;;8.33;70.33;101680.72;5030205;28;20329;-73
2022/05/06 02:40:08;;;;;;;3.27;2.63;;;;;;;8.29;70.07;101679.06;5044940;28;20564;-74
2022/05/06 02:42:35;;;;;;;4.60;3.00;;;;;;;8.25;70.26;101681.88;5050143;28;20205;-73
2022/05/06 02:45:01;;;;;;;5.07;2.93;;;;;;;8.20;70.48;101676.78;5049597;28;20236;-74
2022/05/06 02:47:30;;;;;;;4.03;2.67;;;;;;;8.11;70.10;101679.75;5049313;28;20240;-74
2022/05/06 02:49:56;;;;;;;3.90;2.70;;;;;;;8.02;69.65;101682.75;5050083;28;20655;-75
2022/05/06 02:52:23;;;;;;;4.93;2.70;;;;;;;7.96;70.54;101682.97;5049544;28;20736;-74
2022/05/06 02:54:50;;;;;;;3.53;2.40;;;;;;;7.90;70.71;101681.38;5048978;28;20197;-73
2022/05/06 02:57:16;;;;;;;3.13;2.70;;;;;;;7.88;69.88;101685.03;5047679;28;20235;-74
2022/05/06 02:59:43;;;;;;;4.10;2.80;;;;;;;7.86;71.17;101682.44;5053540;28;20210;-74
2022/05/06 03:02:09;;;;;;;4.93;2.97;;;;;;;7.84;70.75;101676.31;5049100;28;20205;-74
2022/05/06 03:04:38;;;;;;;5.83;2.90;;;;;;;7.83;70.69;101677.25;5049494;28;20233;-74
2022/05/06 03:07:07;;;;;;;5.07;2.83;;;;;;;7.80;71.20;101677.34;5048490;28;20336;-73
2022/05/06 03:09:34;;;;;;;3.20;2.80;;;;;;;7.79;70.80;101672.97;5044722;28;20206;-74
2022/05/06 03:12:00;;;;;;;4.17;3.00;;;;;;;7.76;71.27;101672.19;5049679;28;20213;-74
2022/05/06 03:14:27;;;;;;;4.60;2.90;;;;;;;7.75;70.99;101667.81;5048454;28;20667;-74
2022/05/06 03:16:54;;;;;;;3.77;2.97;;;;;;;7.75;71.42;101670.47;5048327;28;20248;-74
2022/05/06 03:19:20;;;;;;;4.70;3.00;;;;;;;7.74;71.32;101666.94;5049107;28;20205;-74
2022/05/06 03:21:54;;;;;;;4.07;3.03;;;;;;;7.73;71.39;101675.81;5029256;28;20206;-74
2022/05/06 03:24:21;;;;;;;4.13;3.30;;;;;;;7.71;72.17;101679.44;5042742;28;20240;-73
2022/05/06 03:26:47;;;;;;;3.47;2.50;;;;;;;7.69;71.82;101676.00;5048654;28;20232;-74
2022/05/06 03:29:14;;;;;;;3.77;3.07;;;;;;;7.63;71.25;101685.91;5049237;28;20212;-74
2022/05/06 03:31:40;;;;;;;4.50;3.03;;;;;;;7.58;71.70;101689.63;5044808;28;20204;-74
2022/05/06 03:34:07;;;;;;;4.90;2.87;;;;;;;7.53;72.28;101687.13;5048590;28;20202;-74
2022/05/06 03:36:34;;;;;;;3.53;3.20;;;;;;;7.47;71.63;101684.69;5043892;28;20206;-74
2022/05/06 03:39:03;;;;;;;5.73;3.50;;;;;;;7.44;72.34;101682.16;5062234;28;20200;-74
2022/05/06 03:41:29;;;;;;;3.93;3.50;;;;;;;7.45;72.29;101685.66;5038331;28;20213;-74
2022/05/06 03:43:56;;;;;;;6.47;3.83;;;;;;;7.44;72.98;101683.94;5033602;28;20583;-74
2022/05/06 03:46:22;;;;;;;3.80;3.20;;;;;;;7.47;73.05;101683.84;5036270;28;20217;-74
2022/05/06 03:48:51;;;;;;;3.73;3.07;;;;;;;7.47;73.32;101678.53;5033146;28;20232;-73
2022/05/06 03:51:22;;;;;;;4.90;3.20;;;;;;;7.48;73.38;101681.13;5039030;28;20540;-75
2022/05/06 03:53:49;;;;;;;3.73;3.43;;;;;;;7.47;73.63;101675.88;5055860;28;20197;-75
2022/05/06 03:56:18;;;;;;;3.37;2.80;;;;;;;7.44;72.68;101678.63;5051448;28;20197;-73
2022/05/06 03:58:44;;;;;;;5.30;3.20;;;;;;;7.39;73.54;101678.78;5036911;28;20214;-73
2022/05/06 04:01:12;;;;;;;4.13;3.13;;;;;;;7.35;73.12;101679.78;5035006;28;20207;-73
2022/05/06 04:03:39;;;;;;;3.40;3.03;;;;;;;7.31;72.93;101681.69;5032761;28;20194;-73
2022/05/06 04:06:06;;;;;;;3.37;2.90;;;;;;;7.26;73.27;101691.56;5040761;28;20240;-75
2022/05/06 04:08:33;;;;;;;4.20;3.80;;;;;;;7.21;73.68;101693.50;5039061;28;20749;-75
2022/05/06 04:10:59;;;;;;;4.67;3.47;;;;;;;7.16;73.43;101698.09;5041867;28;20208;-75
2022/05/06 04:13:27;;;;;;;3.70;3.23;;;;;;;7.16;74.39;101691.94;5064856;28;20303;-75
2022/05/06 04:15:54;;;;;;;4.47;3.30;;;;;;;7.15;73.92;101691.06;5044359;28;20198;-75
2022/05/06 04:18:20;;;;;;;7.47;3.90;;;;;;;7.15;73.76;101695.50;5037321;28;20690;-75
2022/05/06 04:23:32;;;;;;;5.47;3.63;;;;;;;7.14;74.07;101707.88;5027876;28;20284;-75
2022/05/06 04:25:59;;;;;;;6.87;3.40;;;;;;;7.14;74.85;101707.00;5035680;28;20748;-75
2022/05/06 04:28:28;;;;;;;5.27;3.47;;;;;;;7.13;74.79;101707.94;5040506;28;20775;-75
2022/05/06 04:30:55;;;;;;;5.27;3.50;;;;;;;7.12;74.95;101703.56;5038059;28;20205;-75
2022/05/06 04:33:24;;;;;;;6.83;3.90;;;;;;;7.13;75.02;101705.28;5049008;28;20388;-75
2022/05/06 04:35:52;;;;;;;4.67;3.83;;;;;;;7.14;75.22;101702.59;5051393;28;20212;-74
2022/05/06 04:38:18;;;;;;;4.97;3.43;;;;;;;7.14;75.40;101712.31;5065030;28;20730;-75
2022/05/06 04:40:45;;;;;;;5.83;4.60;;;;;;;7.16;75.82;101710.50;5052515;28;20200;-74
2022/05/06 04:43:12;;;;;;;4.93;4.37;;;;;;;7.19;75.86;101716.53;5057298;28;20200;-75
2022/05/06 04:45:41;;;;;;;5.83;3.77;;;;;;;7.22;75.75;101716.44;5048682;28;20228;-75
2022/05/06 04:48:08;;;;;;;6.80;4.33;;;;;;;7.26;76.08;101710.13;5055839;28;20255;-74
2022/05/06 04:50:36;;;;;;;5.27;4.10;;;;;;;7.28;76.23;101725.97;5048146;28;20213;-76
2022/05/06 04:53:03;;;;;;;4.67;3.70;;;;;;;7.31;76.69;101720.59;5048578;28;20197;-74
2022/05/06 04:55:29;;;;;;;6.60;4.40;;;;;;;7.35;76.66;101718.66;5054044;28;20226;-75
2022/05/06 04:57:56;;;;;;;5.03;4.20;;;;;;;7.38;77.11;101721.22;5050924;28;20221;-75
2022/05/06 05:00:23;;;;;;;8.70;4.17;;;;;;;7.41;77.28;101716.69;5048354;28;20212;-75
2022/05/06 05:02:50;;;;;;;6.63;4.30;;;;;;;7.47;77.43;101723.59;5047598;28;20193;-74
2022/05/06 05:05:18;;;;;;;6.23;4.33;;;;;;;7.50;77.91;101726.13;5048208;28;20217;-75
2022/05/06 05:07:45;;;;;;;7.27;4.47;;;;;;;7.56;77.78;101731.22;5047278;28;20225;-74
2022/05/06 05:10:13;;;;;;;5.47;4.20;;;;;;;7.63;78.29;101732.75;5048680;28;20202;-73
2022/05/06 05:12:39;;;;;;;4.80;3.97;;;;;;;7.69;78.43;101734.34;5067307;28;20677;-72
2022/05/06 05:15:07;;;;;;;7.33;4.30;;;;;;;7.76;78.56;101730.53;5049694;28;20202;-74
2022/05/06 05:17:33;;;;;;;4.50;4.10;;;;;;;7.81;78.83;101732.13;5041550;28;20247;-74
2022/05/06 05:20:01;;;;;;;5.07;4.20;;;;;;;7.89;78.76;101739.78;5042227;28;20568;-75
2022/05/06 05:22:28;;;;;;;4.43;3.63;;;;;;;7.96;78.97;101733.38;5043699;28;20559;-75
2022/05/06 05:24:55;;;;;;;6.30;4.23;;;;;;;8.01;78.76;101732.28;5047635;28;20249;-75
2022/05/06 05:27:21;;;;;;;6.13;4.30;;;;;;;8.10;79.13;101733.75;5050287;28;20212;-75
2022/05/06 05:29:48;;;;;;;5.37;4.00;;;;;;;8.19;79.28;101728.13;5050906;28;20637;-75
2022/05/06 05:32:18;;;;;;;4.53;4.00;;;;;;;8.29;79.97;101734.81;5046914;28;20204;-75
2022/05/06 05:34:46;;;;;;;8.63;4.13;;;;;;;8.39;79.87;101726.56;5046824;28;20270;-76
2022/05/06 05:37:14;;;;;;;6.73;4.27;;;;;;;8.48;79.46;101735.03;5046119;28;20232;-76
2022/05/06 05:39:40;;;;;;;5.10;4.40;;;;;;;8.59;79.42;101738.16;5046520;28;20679;-75
2022/05/06 05:42:08;;;;;;;5.10;3.67;;;;;;;8.73;79.66;101745.59;5048369;28;20297;-76
2022/05/06 05:50:03;;;;;;;6.03;3.90;;;;;;;9.14;79.92;101735.13;5047914;28;20274;-73
2022/05/06 05:52:31;;;;;;;4.67;3.93;;;;;;;9.29;79.22;101742.50;5044908;28;20706;-73
2022/05/06 05:54:58;;;;;;;6.47;4.07;;;;;;;9.45;80.06;101742.75;5047352;28;20198;-74
2022/05/06 05:57:24;;;;;;;4.90;4.47;;;;;;;9.63;79.78;101737.53;5040032;28;20248;-74
2022/05/06 05:59:51;;;;;;;5.43;4.80;;;;;;;9.82;79.60;101737.59;5044763;28;20212;-74
2022/05/06 06:02:19;;;;;;;6.00;4.47;;;;;;;9.99;79.32;101740.41;5051927;28;20205;-74
2022/05/06 06:04:46;;;;;;;6.37;3.80;;;;;;;10.18;78.88;101743.13;5046535;28;20660;-74
2022/05/06 06:07:13;;;;;;;4.83;4.33;;;;;;;10.36;78.31;101742.34;5053620;28;20703;-74
2022/05/06 06:09:41;;;;;;;6.67;4.20;;;;;;;10.56;78.27;101743.22;5055363;28;20206;-74
2022/05/06 06:12:08;;;;;;;6.43;4.60;;;;;;;10.70;76.91;101741.66;5053367;28;20224;-74
2022/05/06 06:14:35;;;;;;;9.13;4.77;;;;;;;10.87;76.43;101748.84;5049484;28;20217;-74
2022/05/06 06:17:02;;;;;;;8.43;4.97;;;;;;;11.03;76.06;101744.50;5050174;28;20224;-74
2022/05/06 06:19:29;;;;;;;5.90;4.43;;;;;;;11.20;75.70;101749.03;5048524;28;20198;-75
2022/05/06 06:21:55;;;;;;;6.33;4.80;;;;;;;11.36;75.34;101755.34;5050424;28;20223;-73
2022/05/06 06:24:22;;;;;;;5.47;4.27;;;;;;;11.54;74.98;101747.38;5064212;28;20206;-74
2022/05/06 06:26:50;;;;;;;6.37;4.57;;;;;;;11.68;74.64;101748.41;5059023;28;20250;-74
2022/05/06 06:29:16;;;;;;;6.20;4.77;;;;;;;11.82;73.73;101751.25;5050774;28;20205;-74
2022/05/06 06:31:43;;;;;;;7.20;4.47;;;;;;;11.97;73.44;101752.31;5054668;28;20212;-74
2022/05/06 06:34:09;;;;;;;5.67;4.33;;;;;;;12.13;72.94;101749.69;5059219;28;20260;-74
2022/05/06 06:36:36;;;;;;;6.03;4.17;;;;;;;12.30;72.98;101747.00;5048952;28;20203;-74
2022/05/06 06:39:03;;;;;;;4.73;3.90;;;;;;;12.49;72.26;101753.09;5056961;28;20212;-74
2022/05/06 06:41:30;;;;;;;5.90;4.30;;;;;;;12.67;72.09;101753.91;5056952;28;20215;-74
2022/05/06 06:44:00;;;;;;;6.27;4.27;;;;;;;12.87;71.48;101755.50;5053832;28;20218;-75
2022/05/06 06:46:27;;;;;;;8.20;4.70;;;;;;;13.05;70.96;101754.47;5056932;28;20728;-74
2022/05/06 06:48:54;;;;;;;7.30;4.47;;;;;;;13.22;70.48;101748.19;5046970;28;20225;-74
2022/05/06 06:51:20;;;;;;;5.53;4.30;;;;;;;13.38;70.02;101754.38;5052070;28;20202;-72
2022/05/06 06:53:48;;;;;;;7.40;4.57;;;;;;;13.54;69.42;101749.88;5052449;28;20209;-72
2022/05/06 06:56:15;;;;;;;6.47;4.53;;;;;;;13.71;69.26;101748.88;5050401;28;20675;-72
2022/05/06 06:58:41;;;;;;;5.53;4.30;;;;;;;13.89;68.55;101753.16;5050321;28;20225;-71
2022/05/06 07:01:09;;;;;;;7.53;5.10;;;;;;;14.07;68.18;101764.56;5050286;28;20197;-72
2022/05/06 07:03:35;;;;;;;10.77;4.70;;;;;;;14.25;67.32;101762.59;5050701;28;20210;-72
2022/05/06 07:14:14;;;;;;;9.33;4.97;;;;;;;14.91;64.46;101762.03;5039554;28;20287;-73
2022/05/06 07:16:42;;;;;;;6.93;4.40;;;;;;;15.10;62.98;101767.97;5043276;28;20577;-73
2022/05/06 07:19:08;;;;;;;5.40;4.23;;;;;;;15.25;61.99;101763.41;5046061;28;20580;-73
2022/05/06 07:21:35;;;;;;;5.47;4.97;;;;;;;15.39;61.49;101759.84;5045393;28;20206;-73
2022/05/06 07:24:02;;;;;;;7.87;4.77;;;;;;;15.57;61.38;101769.41;5044009;28;20237;-75
2022/05/06 07:26:28;;;;;;;5.07;4.37;;;;;;;15.72;60.14;101760.31;5042278;28;20258;-74
2022/05/06 07:28:54;;;;;;;6.70;5.00;;;;;;;15.84;58.68;101762.16;5044719;28;20553;-74
2022/05/06 07:31:21;;;;;;;7.23;4.10;;;;;;;15.97;58.32;101764.88;5040550;28;20217;-74
2022/05/06 07:33:49;;;;;;;7.60;4.03;;;;;;;16.14;58.22;101764.56;5039676;28;20735;-74
2022/05/06 07:36:16;;;;;;;4.40;3.90;;;;;;;16.31;57.12;101771.47;5043682;28;20213;-74
2022/05/06 07:38:42;;;;;;;5.17;4.20;;;;;;;16.47;56.12;101765.91;5037733;28;20233;-74
2022/05/06 07:41:09;;;;;;;4.37;3.97;;;;;;;16.62;55.73;101756.75;5038588;28;20206;-74
2022/05/06 07:43:36;;;;;;;5.97;3.93;;;;;;;16.83;55.54;101766.00;5039075;28;20215;-74
2022/05/06 07:46:03;;;;;;;5.40;3.83;;;;;;;17.04;54.54;101766.25;5040443;28;20228;-74
2022/05/06 07:48:29;;;;;;;6.10;4.13;;;;;;;17.19;53.55;101759.78;5039889;28;20310;-74
2022/05/06 07:50:58;;;;;;;6.67;4.57;;;;;;;17.37;53.45;101762.94;5041219;28;20224;-75
2022/05/06 07:53:25;;;;;;;6.37;3.90;;;;;;;17.51;52.50;101762.78;5037642;28;20221;-76
2022/05/06 07:55:51;;;;;;;7.00;4.23;;;;;;;17.65;52.09;101756.38;5038211;28;20210;-74
2022/05/06 07:58:18;;;;;;;5.60;3.97;;;;;;;17.78;51.63;101765.25;5041279;28;20667;-75
2022/05/06 08:00:45;;;;;;;6.20;4.43;;;;;;;17.89;51.25;101759.91;5041625;28;20945;-74
2022/05/06 08:05:57;;;;;;;6.83;4.07;;;;;;;18.22;50.59;101758.28;5039303;28;20757;-75
2022/05/06 08:08:26;;;;;;;6.87;4.57;;;;;;;18.37;50.22;101757.94;5032218;28;20232;-75
2022/05/06 08:10:54;;;;;;;4.63;3.87;;;;;;;18.55;49.80;101752.94;5039675;28;20806;-75
2022/05/06 08:13:20;;;;;;;4.63;3.60;;;;;;;18.76;49.35;101757.63;5037275;28;20298;-75
2022/05/06 08:15:52;;;;;;;7.27;3.80;;;;;;;18.90;48.78;101754.66;5037267;28;20203;-75
2022/05/06 08:18:19;;;;;;;6.80;4.23;;;;;;;19.03;48.32;101748.13;5033341;28;20251;-75
2022/05/06 08:20:46;;;;;;;4.63;3.77;;;;;;;19.17;47.81;101746.19;5038446;28;20693;-75
2022/05/06 08:23:15;;;;;;;4.60;3.53;;;;;;;19.31;47.72;101744.06;5034112;28;20779;-74
2022/05/06 08:25:42;;;;;;;4.33;3.43;;;;;;;19.45;46.71;101747.44;5030887;28;20589;-75
2022/05/06 08:28:09;;;;;;;6.43;4.03;;;;;;;19.60;46.19;101748.88;5039525;28;20562;-75
2022/05/06 08:30:35;;;;;;;5.27;3.40;;;;;;;19.72;45.39;101743.31;5035430;28;20690;-75
2022/05/06 08:33:02;;;;;;;7.50;3.40;;;;;;;19.84;44.63;101744.13;5037660;28;20201;-75
2022/05/06 08:35:28;;;;;;;4.03;3.23;;;;;;;19.94;43.70;101745.03;5039316;28;20212;-75
2022/05/06 08:37:57;;;;;;;4.30;3.00;;;;;;;20.05;44.01;101738.72;5039387;28;20230;-75
2022/05/06 08:40:28;;;;;;;4.07;2.50;;;;;;;20.21;43.08;101738.25;5036639;28;20232;-75
2022/05/06 08:42:56;;;;;;;4.07;2.40;;;;;;;20.28;41.91;101736.72;5035892;28;20213;-75
2022/05/06 08:50:54;;;;;;;4.27;3.00;;;;;;;20.55;39.67;101739.75;5046506;28;20358;-76
2022/05/06 08:53:22;;;;;;;4.63;3.60;;;;;;;20.63;38.81;101739.94;5040602;28;20554;-75
2022/05/06 08:55:52;;;;;;;4.60;3.47;;;;;;;20.70;38.35;101737.53;5046168;28;20273;-75
2022/05/06 08:58:20;;;;;;;4.67;3.03;;;;;;;20.81;38.47;101732.03;5046142;28;20235;-75
2022/05/06 09:00:47;;;;;;;3.33;2.73;;;;;;;20.92;38.30;101726.50;5040007;28;20224;-75
2022/05/06 09:03:15;;;;;;;5.10;2.87;;;;;;;21.02;38.00;101727.38;5047989;28;20211;-76
2022/05/06 09:05:52;;;;;;;6.07;3.23;;;;;;;21.12;37.86;101728.28;5039647;28;20204;-75
2022/05/06 09:08:19;;;;;;;4.47;2.72;;;;;;;21.22;37.11;101728.31;5042129;28;20273;-75
2022/05/06 09:11:03;;;;;;;4.10;2.72;;;;;;;21.25;36.97;101727.19;5046245;28;20216;-75
2022/05/06 09:13:30;;;;;;;4.50;2.45;;;;;;;21.24;36.38;101730.91;5041409;28;20785;-75
2022/05/06 09:19:12;;;;;;;3.22;2.45;;;;;;;21.28;37.03;101727.78;5046360;28;20781;-75
2022/05/06 09:21:41;;;;;;;4.28;2.45;;;;;;;21.39;36.59;101726.78;5047917;28;20295;-75
2022/05/06 09:24:18;;;;;;;4.70;2.80;;;;;;;21.50;36.38;101723.09;5037866;28;20598;-76
2022/05/06 09:27:01;;;;;;;3.53;2.38;;;;;;;21.61;36.33;101717.53;5035848;28;20282;-75
2022/05/06 09:29:29;;;;;;;4.43;2.38;;;;;;;21.72;36.06;101729.06;5044185;28;20293;-76
2022/05/06 09:31:56;;;;;;;5.57;2.45;;;;;;;21.77;35.34;101728.66;5035735;28;20201;-75
2022/05/06 09:34:28;;;;;;;3.08;2.53;;;;;;;21.82;35.05;101729.94;5030953;28;20208;-77
2022/05/06 09:36:54;;;;;;;5.15;3.00;;;;;;;21.89;35.07;101734.75;5038514;28;20772;-75
2022/05/06 09:39:22;;;;;;;4.50;2.95;;;;;;;21.99;34.41;101735.63;5036613;28;20210;-75
2022/05/06 09:41:49;;;;;;;5.60;2.75;;;;;;;22.07;33.77;101728.50;5036428;28;20450;-76
2022/05/06 09:44:23;;;;;;;3.65;2.72;;;;;;;22.15;33.95;101736.78;5037220;28;20255;-75
2022/05/06 09:47:07;;;;;;;5.40;2.78;;;;;;;22.26;33.74;101729.44;5037023;28;20871;-75
2022/05/06 09:49:39;;;;;;;6.78;3.13;;;;;;;22.27;33.26;101728.44;5037531;28;20206;-76
2022/05/06 09:52:10;;;;;;;4.85;2.65;;;;;;;22.31;33.63;101721.72;5035368;28;20776;-76
2022/05/06 09:54:36;;;;;;;3.80;2.55;;;;;;;22.39;33.40;101721.88;5037099;28;20279;-75
2022/05/06 09:57:06;;;;;;;6.93;3.47;;;;;;;22.46;33.10;101720.25;5044509;28;20225;-75
2022/05/06 09:59:35;;;;;;;3.33;2.90;;;;;;;22.55;33.01;101719.38;5042163;28;20213;-75
2022/05/06 10:02:03;;;;;;;4.88;3.22;;;;;;;22.62;32.69;101717.75;5040697;28;20201;-75
2022/05/06 10:04:29;;;;;;;4.72;2.92;;;;;;;22.61;32.39;101721.47;5041257;28;20205;-74
2022/05/06 10:06:58;;;;;;;3.95;2.90;;;;;;;22.62;32.94;101715.03;5036400;28;20255;-74
2022/05/06 10:09:27;;;;;;;5.55;2.97;;;;;;;22.72;33.10;101712.28;5041292;28;20197;-74
2022/05/06 10:11:56;;;;;;;3.55;3.03;;;;;;;22.81;32.62;101711.41;5036079;28;20201;-75
2022/05/06 10:14:23;;;;;;;4.47;2.97;;;;;;;22.73;32.88;101711.28;5037229;28;20199;-75
2022/05/06 10:16:51;;;;;;;6.20;3.08;;;;;;;22.68;33.01;101709.03;5035364;28;20206;-74
2022/05/06 10:19:28;;;;;;;4.10;3.20;;;;;;;22.70;33.16;101706.16;5041094;28;20216;-75
2022/05/06 10:21:55;;;;;;;4.15;2.97;;;;;;;22.76;33.10;101703.69;5041463;28;20212;-75
2022/05/06 10:24:22;;;;;;;4.43;2.75;;;;;;;22.85;32.53;101708.25;5042556;28;20382;-75
2022/05/06 10:26:50;;;;;;;5.95;2.90;;;;;;;22.90;32.53;101702.38;5047305;28;20236;-74
2022/05/06 10:32:26;;;;;;;4.88;2.95;;;;;;;22.96;32.11;101695.44;5046792;28;20213;-75
2022/05/06 10:35:12;;;;;;;4.15;3.10;;;;;;;23.00;32.41;101691.44;5039327;28;20304;-74
2022/05/06 10:37:41;;;;;;;5.65;2.78;;;;;;;23.04;32.40;101698.28;5047038;28;20232;-75
2022/05/06 10:40:30;;;;;;;5.25;3.05;;;;;;;23.12;32.31;101682.91;5047407;28;20212;-75
2022/05/06 10:42:57;;;;;;;4.78;2.55;;;;;;;23.14;32.17;101686.31;5047202;28;20209;-75
2022/05/06 10:45:25;;;;;;;4.10;2.88;;;;;;;23.17;32.50;101677.00;5042363;28;20692;-76
2022/05/06 10:47:53;;;;;;;5.55;2.88;;;;;;;23.22;32.58;101676.56;5037216;28;20244;-75
2022/05/06 10:50:22;;;;;;;6.35;2.22;;;;;;;23.23;32.21;101670.97;5046120;28;20501;-75
2022/05/06 10:52:49;;;;;;;6.00;2.28;;;;;;;23.26;32.48;101672.53;5042001;28;20213;-76
2022/05/06 10:55:21;;;;;;;3.03;1.98;;;;;;;23.34;32.30;101669.88;5041562;28;20213;-74
2022/05/06 10:58:02;;;;;;;3.28;2.15;;;;;;;23.41;32.41;101666.41;5037609;28;20298;-74
2022/05/06 11:00:30;;;;;;;2.55;2.35;;;;;;;23.44;32.09;101660.66;5041008;28;20201;-74
2022/05/06 11:02:59;;;;;;;2.78;1.95;;;;;;;23.45;31.73;101675.09;5038450;28;20202;-74
2022/05/06 11:05:27;;;;;;;3.60;2.55;;;;;;;23.44;32.21;101666.09;5038356;28;20201;-75
2022/05/06 11:07:56;;;;;;;3.10;2.80;;;;;;;23.45;31.96;101675.94;5045907;28;20227;-75
2022/05/06 11:10:25;;;;;;;5.20;2.47;;;;;;;23.45;31.39;101669.66;5051034;28;20194;-70
2022/05/06 11:12:53;;;;;;;2.97;2.28;;;;;;;23.43;31.37;101666.25;5038146;28;20213;-69
2022/05/06 11:15:21;;;;;;;3.47;2.42;;;;;;;23.42;31.51;101668.09;5042661;28;20204;-70
2022/05/06 11:17:49;;;;;;;4.47;2.30;;;;;;;23.41;31.84;101660.09;5053960;28;20316;-69
2022/05/06 11:20:21;;;;;;;4.43;2.45;;;;;;;23.46;31.75;101664.06;5051571;28;20229;-69
2022/05/06 11:22:52;;;;;;;3.08;2.20;;;;;;;23.51;31.91;101660.84;5042353;28;20669;-69
2022/05/06 11:25:20;;;;;;;5.88;2.13;;;;;;;23.59;31.57;101646.53;5047627;28;20205;-69
2022/05/06 11:27:46;;;;;;;3.20;2.20;;;;;;;23.63;31.50;101642.47;5042420;28;20225;-69
2022/05/06 11:30:17;;;;;;;3.65;1.70;;;;;;;23.69;31.58;101653.56;5046661;28;20201;-69
2022/05/06 11:32:48;;;;;;;3.88;2.35;;;;;;;23.74;31.65;101650.38;5059996;28;20567;-69
2022/05/06 11:35:19;;;;;;;2.25;1.60;;;;;;;23.73;32.04;101654.97;5042048;28;20213;-69
2022/05/06 11:37:46;;;;;;;4.88;1.88;;;;;;;23.74;31.15;101644.94;5042393;28;20221;-70
2022/05/06 11:40:33;;;;;;;1.80;1.55;;;;;;;23.77;30.88;101639.19;5041235;28;20204;-69
2022/05/06 11:43:01;;;;;;;3.80;2.13;;;;;;;23.78;30.53;101643.63;5036170;28;20210;-69
2022/05/06 11:48:13;;;;;;;2.15;1.55;;;;;;;23.71;29.68;101632.50;5044533;28;20239;-69
2022/05/06 11:50:43;;;;;;;2.72;1.33;;;;;;;23.69;30.21;101639.09;5042348;28;20259;-69
2022/05/06 11:53:13;;;;;;;1.88;1.70;;;;;;;23.76;30.91;101632.03;5041991;28;20215;-69
2022/05/06 11:55:43;;;;;;;4.25;1.60;;;;;;;23.87;30.34;101621.72;5047575;28;20297;-69
2022/05/06 11:58:13;;;;;;;1.70;1.60;;;;;;;23.87;30.28;101616.28;5044261;28;20638;-69
2022/05/06 12:00:40;;;;;;;3.10;1.90;;;;;;;23.91;30.77;101624.13;5042902;28;21334;-69
2022/05/06 12:03:09;;;;;;;3.00;1.63;;;;;;;23.96;30.14;101619.09;5045335;28;20213;-69
2022/05/06 12:05:37;;;;;;;3.72;1.63;;;;;;;24.00;30.01;101615.88;5057900;28;20292;-69
2022/05/06 12:08:07;;;;;;;2.28;1.40;;;;;;;23.99;29.37;101626.94;5050265;28;21469;-70
2022/05/06 12:10:35;;;;;;;2.15;1.50;;;;;;;23.93;29.81;101622.97;5049373;28;20211;-69
2022/05/06 12:13:05;;;;;;;4.53;1.60;;;;;;;23.89;29.29;101618.84;5043010;28;20221;-69